Burns Flat, Oklahoma
Current Conditions -  °F | °C
As of 6:53 AM on Tuesday 21 Oct 2014 (Local Time) from KCSM Reporting Station
Clear Clear  
Wind Chill: 16°   Ceiling: Unl
Heat Index: 16°   Visibility: 8mi
Dew Point: 13°   Wind: 9mph
Humidity: 83%   Direction: 210°SSW
Pressure: 30.08"   Gusts: NA
Location:  35.35°N, 99.17°W
Report Text: KCSM 211153Z AUTO 21008KT 8SM CLR 16/13 A3008 RMK AO2 SLP169 T01610133 10189 20156 51004
Loading
Personal Weather Stations






























Interactive Weather Map
Tropical Storm Tracking
New forecast layout! Learn more

10-Day Weather Forecast

Advertisements
Track Severe Weather on mobile